createdAt,value
2019-04-21T00:01:16.507Z,15.59
2019-04-21T00:03:52.210Z,15.57
2019-04-21T00:06:43.468Z,15.52
2019-04-21T00:09:19.131Z,15.48
2019-04-21T00:11:47.215Z,15.46
2019-04-21T00:14:11.458Z,15.44
2019-04-21T00:16:39.357Z,15.41
2019-04-21T00:19:17.341Z,15.35
2019-04-21T00:21:49.246Z,15.36
2019-04-21T00:24:28.862Z,15.35
2019-04-21T00:27:05.208Z,15.34
2019-04-21T00:29:51.799Z,15.38
2019-04-21T00:32:08.667Z,15.35
2019-04-21T00:34:25.624Z,15.31
2019-04-21T00:37:09.165Z,15.29
2019-04-21T00:42:22.755Z,15.28
2019-04-21T00:44:54.608Z,15.28
2019-04-21T00:47:31.735Z,15.23
2019-04-21T00:50:05.283Z,15.18
2019-04-21T00:53:00.194Z,15.17
2019-04-21T00:55:47.296Z,15.09
2019-04-21T00:58:19.053Z,15.06
2019-04-21T01:00:46.365Z,15.05
2019-04-21T01:03:20.558Z,15.03
2019-04-21T01:05:52.870Z,15.06
2019-04-21T01:08:21.717Z,15.07
2019-04-21T01:10:48.897Z,15.09
2019-04-21T01:13:27.744Z,15.13
2019-04-21T01:15:59.627Z,15.13
2019-04-21T01:18:33.184Z,15.12
2019-04-21T01:20:42.446Z,15.07
2019-04-21T01:23:14.702Z,15.00
2019-04-21T01:26:00.620Z,14.94
2019-04-21T01:28:38.209Z,14.84
2019-04-21T01:31:10.917Z,14.74
2019-04-21T01:33:44.907Z,14.66
2019-04-21T01:36:13.983Z,14.64
2019-04-21T01:38:48.643Z,14.64
2019-04-21T01:41:28.855Z,14.64
2019-04-21T01:43:53.463Z,14.60
2019-04-21T01:46:20.690Z,14.55
2019-04-21T01:48:49.479Z,14.52
2019-04-21T01:51:27.866Z,14.47
2019-04-21T01:54:37.665Z,14.42
2019-04-21T01:57:17.355Z,14.32
2019-04-21T01:59:48.861Z,14.23
2019-04-21T02:02:22.929Z,14.17
2019-04-21T02:05:08.817Z,14.15
2019-04-21T02:07:30.875Z,14.12
2019-04-21T02:10:05.090Z,14.09
2019-04-21T02:12:38.086Z,14.04
2019-04-21T02:15:12.620Z,13.94
2019-04-21T02:17:43.446Z,13.84
2019-04-21T02:20:02.636Z,13.79
2019-04-21T02:23:00.453Z,13.78
2019-04-21T02:25:20.158Z,13.80
2019-04-21T02:27:53.946Z,13.87
2019-04-21T02:30:35.626Z,13.92
2019-04-21T02:33:08.747Z,13.92
2019-04-21T02:35:42.859Z,13.90
2019-04-21T02:38:12.167Z,13.79
2019-04-21T02:45:47.052Z,13.59
2019-04-21T02:48:17.248Z,13.52
2019-04-21T02:53:37.448Z,13.49
2019-04-21T02:55:51.185Z,13.47
2019-04-21T02:58:34.404Z,13.38
2019-04-21T03:01:38.224Z,13.23
2019-04-21T03:04:24.228Z,13.10
2019-04-21T03:10:06.455Z,13.04
2019-04-21T03:12:20.588Z,13.00
2019-04-21T03:17:46.187Z,12.85
2019-04-21T03:22:24.644Z,12.74
2019-04-21T03:30:10.199Z,12.54
2019-04-21T03:40:16.753Z,12.46
2019-04-21T03:42:54.271Z,12.46
2019-04-21T03:47:53.251Z,12.40
2019-04-21T03:50:27.373Z,12.35
2019-04-21T03:53:03.449Z,12.32
2019-04-21T04:06:39.069Z,12.20
2019-04-21T04:14:37.094Z,12.22
2019-04-21T04:19:18.453Z,12.22
2019-04-21T04:21:56.437Z,12.21
2019-04-21T04:24:39.522Z,12.27
2019-04-21T04:31:55.345Z,12.33
2019-04-21T04:34:42.056Z,12.43
2019-04-21T04:40:00.487Z,12.46
2019-04-21T04:42:45.869Z,12.43
2019-04-21T04:45:17.651Z,12.44
2019-04-21T04:47:44.915Z,12.50
2019-04-21T04:50:15.420Z,12.53
2019-04-21T04:55:22.123Z,12.63
2019-04-21T04:57:59.490Z,12.66
2019-04-21T05:05:28.275Z,12.65
2019-04-21T05:08:19.390Z,12.69
2019-04-21T05:10:54.548Z,12.83
2019-04-21T05:13:06.202Z,13.74
2019-04-21T05:15:37.718Z,15.76
2019-04-21T05:18:04.628Z,17.76
2019-04-21T05:20:41.868Z,19.27
2019-04-21T05:23:06.804Z,20.36
2019-04-21T05:25:35.141Z,21.03
2019-04-21T05:28:06.374Z,21.57
2019-04-21T05:30:56.426Z,22.04
2019-04-21T05:33:47.525Z,22.59
2019-04-21T05:36:33.971Z,23.06
2019-04-21T05:39:12.031Z,23.52
2019-04-21T05:41:34.832Z,24.09
2019-04-21T05:44:29.194Z,24.49
2019-04-21T05:47:07.850Z,24.54
2019-04-21T05:49:34.842Z,24.27
2019-04-21T05:52:03.808Z,22.61
2019-04-21T05:54:52.759Z,20.49
2019-04-21T05:57:10.413Z,18.78
2019-04-21T05:59:51.534Z,17.68
2019-04-21T06:02:24.335Z,17.03
2019-04-21T06:07:28.506Z,16.06
2019-04-21T06:09:59.697Z,15.82
2019-04-21T06:12:35.968Z,15.55
2019-04-21T06:15:07.003Z,15.41
2019-04-21T06:17:58.218Z,15.42
2019-04-21T06:20:12.578Z,15.39
2019-04-21T06:22:48.972Z,15.37
2019-04-21T06:27:49.253Z,15.47
2019-04-21T06:30:22.390Z,15.49
2019-04-21T06:32:52.654Z,15.65
2019-04-21T06:35:58.798Z,15.73
2019-04-21T06:38:15.259Z,15.76
2019-04-21T06:40:53.538Z,15.74
2019-04-21T06:43:33.227Z,15.68
2019-04-21T06:46:06.527Z,15.69
2019-04-21T06:48:37.511Z,15.82
2019-04-21T06:51:06.164Z,15.88
2019-04-21T06:53:44.614Z,16.00
2019-04-21T06:56:15.566Z,16.08
2019-04-21T06:58:42.962Z,16.29
2019-04-21T07:01:18.936Z,16.46
2019-04-21T07:03:48.603Z,16.54
2019-04-21T07:06:26.104Z,16.68
2019-04-21T07:09:04.361Z,16.77
2019-04-21T07:11:18.765Z,16.76
2019-04-21T07:14:16.060Z,16.82
2019-04-21T07:16:31.973Z,16.91
2019-04-21T07:19:09.820Z,17.02
2019-04-21T07:21:34.403Z,16.97
2019-04-21T07:24:05.603Z,17.09
2019-04-21T07:26:36.391Z,17.12
2019-04-21T07:29:14.243Z,17.38
2019-04-21T07:34:23.927Z,17.53
2019-04-21T07:36:59.637Z,17.65
2019-04-21T07:39:18.398Z,17.78
2019-04-21T07:41:48.406Z,17.99
2019-04-21T07:44:18.123Z,18.17
2019-04-21T07:46:48.185Z,18.32
2019-04-21T07:49:46.444Z,18.53
2019-04-21T07:52:22.257Z,18.57
2019-04-21T07:55:05.635Z,18.64
2019-04-21T07:57:25.492Z,18.81
2019-04-21T08:07:50.710Z,19.45
2019-04-21T08:10:09.099Z,19.46
2019-04-21T08:12:36.368Z,19.56
2019-04-21T08:15:23.633Z,19.67
2019-04-21T08:17:47.188Z,19.75
2019-04-21T08:20:18.787Z,19.90
2019-04-21T08:22:51.828Z,20.00
2019-04-21T08:25:22.281Z,20.07
2019-04-21T08:30:36.224Z,20.35
2019-04-21T08:33:17.525Z,20.32
2019-04-21T08:38:08.197Z,20.58
2019-04-21T08:40:40.907Z,20.71
2019-04-21T08:43:21.813Z,20.80
2019-04-21T08:45:57.299Z,20.80
2019-04-21T08:48:22.514Z,20.84
2019-04-21T08:51:06.242Z,20.91
2019-04-21T08:53:25.547Z,21.19
2019-04-21T08:59:31.821Z,21.64
2019-04-21T09:02:08.949Z,21.83
2019-04-21T09:04:41.024Z,21.88
2019-04-21T09:09:52.535Z,21.94
2019-04-21T09:12:26.159Z,21.93
2019-04-21T09:14:55.296Z,22.03
2019-04-21T09:17:26.261Z,22.15
2019-04-21T09:20:10.699Z,22.26
2019-04-21T09:22:37.714Z,22.39
2019-04-21T09:25:01.492Z,22.37
2019-04-21T09:27:36.780Z,22.47
2019-04-21T09:29:57.605Z,22.49
2019-04-21T09:32:27.565Z,22.66
2019-04-21T09:34:58.094Z,22.78
2019-04-21T09:37:40.927Z,22.81
2019-04-21T09:40:03.033Z,22.97
2019-04-21T09:42:41.017Z,23.04
2019-04-21T09:45:08.555Z,23.10
2019-04-21T09:47:47.041Z,23.18
2019-04-21T09:50:11.652Z,23.22
2019-04-21T09:53:05.428Z,23.24
2019-04-21T09:55:53.662Z,23.15
2019-04-21T09:58:23.991Z,23.30
2019-04-21T10:00:57.338Z,23.32
2019-04-21T10:03:21.228Z,23.21
2019-04-21T10:05:54.465Z,23.14
2019-04-21T10:08:25.088Z,23.12
2019-04-21T10:10:56.884Z,23.20
2019-04-21T10:13:27.478Z,23.38
2019-04-21T10:16:15.561Z,23.62
2019-04-21T10:18:46.129Z,23.52
2019-04-21T10:21:17.420Z,23.54
2019-04-21T10:23:50.058Z,23.56
2019-04-21T10:26:22.130Z,23.55
2019-04-21T10:28:53.329Z,23.60
2019-04-21T10:31:24.918Z,23.72
2019-04-21T10:33:55.775Z,23.74
2019-04-21T10:36:26.879Z,23.63
2019-04-21T10:38:58.982Z,23.71
2019-04-21T10:41:29.832Z,23.71
2019-04-21T10:44:00.988Z,23.78
2019-04-21T10:46:32.994Z,23.78
2019-04-21T10:49:04.423Z,23.81
2019-04-21T10:51:35.191Z,23.95
2019-04-21T10:54:06.256Z,24.21
2019-04-21T10:56:41.745Z,24.45
2019-04-21T10:59:10.140Z,24.59
2019-04-21T11:01:41.466Z,24.46
2019-04-21T11:04:23.563Z,24.33
2019-04-21T11:06:52.672Z,24.23
2019-04-21T11:09:26.346Z,24.22
2019-04-21T11:11:57.853Z,24.21
2019-04-21T11:14:29.360Z,24.15
2019-04-21T11:17:00.537Z,24.23
2019-04-21T11:19:32.714Z,24.46
2019-04-21T11:22:05.038Z,24.52
2019-04-21T11:24:36.760Z,24.69
2019-04-21T11:27:08.720Z,24.83
2019-04-21T11:29:39.397Z,24.89
2019-04-21T11:32:09.843Z,24.87
2019-04-21T11:34:41.030Z,24.64
2019-04-21T11:37:14.352Z,24.70
2019-04-21T11:39:52.188Z,24.87
2019-04-21T11:42:25.747Z,24.93
2019-04-21T11:44:57.311Z,24.90
2019-04-21T11:47:32.810Z,24.63
2019-04-21T11:50:03.416Z,24.61
2019-04-21T11:52:34.735Z,24.61
2019-04-21T11:55:06.738Z,24.65
2019-04-21T11:57:44.731Z,24.61
2019-04-21T12:00:13.681Z,24.72
2019-04-21T12:02:45.621Z,24.75
2019-04-21T12:05:17.323Z,24.79
2019-04-21T12:07:49.258Z,24.75
2019-04-21T12:10:23.670Z,24.91
2019-04-21T12:12:55.164Z,25.12
2019-04-21T12:15:27.016Z,25.18
2019-04-21T12:18:01.934Z,25.12
2019-04-21T12:20:33.436Z,25.00
2019-04-21T12:23:04.688Z,25.06
2019-04-21T12:25:39.004Z,25.14
2019-04-21T12:28:10.043Z,25.22
2019-04-21T12:30:42.394Z,25.34
2019-04-21T12:33:16.169Z,25.52
2019-04-21T12:35:46.584Z,25.39
2019-04-21T12:38:28.404Z,25.33
2019-04-21T12:40:50.661Z,25.22
2019-04-21T12:43:21.478Z,25.39
2019-04-21T12:45:52.019Z,25.51
2019-04-21T12:48:26.212Z,25.18
2019-04-21T12:50:57.536Z,25.08
2019-04-21T12:53:29.591Z,25.14
2019-04-21T12:56:02.012Z,25.18
2019-04-21T12:58:33.223Z,24.96
2019-04-21T13:01:04.955Z,24.81
2019-04-21T13:03:35.793Z,25.00
2019-04-21T13:06:07.592Z,25.22
2019-04-21T13:08:45.656Z,25.28
2019-04-21T13:11:11.525Z,25.42
2019-04-21T13:13:44.014Z,25.38
2019-04-21T13:16:17.297Z,25.54
2019-04-21T13:18:49.111Z,25.54
2019-04-21T13:21:20.191Z,25.45
2019-04-21T13:23:50.785Z,25.10
2019-04-21T13:26:29.599Z,24.91
2019-04-21T13:28:54.224Z,24.88
2019-04-21T13:31:24.685Z,25.05
2019-04-21T13:33:55.740Z,25.22
2019-04-21T13:36:27.639Z,25.01
2019-04-21T13:39:52.274Z,24.99
2019-04-21T13:42:06.340Z,25.10
2019-04-21T13:44:32.932Z,25.25
2019-04-21T13:47:04.904Z,25.22
2019-04-21T13:49:36.857Z,25.30
2019-04-21T13:52:08.831Z,25.44
2019-04-21T13:54:43.258Z,25.33
2019-04-21T13:57:14.429Z,25.32
2019-04-21T13:59:46.346Z,25.41
2019-04-21T14:02:18.517Z,25.39
2019-04-21T14:04:49.662Z,25.48
2019-04-21T14:07:20.512Z,25.56
2019-04-21T14:09:57.900Z,25.51
2019-04-21T14:12:23.641Z,25.48
2019-04-21T14:14:54.469Z,25.51
2019-04-21T14:17:25.215Z,25.19
2019-04-21T14:19:55.695Z,24.93
2019-04-21T14:22:26.815Z,24.92
2019-04-21T14:24:57.272Z,24.91
2019-04-21T14:27:28.192Z,24.87
2019-04-21T14:30:02.912Z,24.72
2019-04-21T14:32:33.749Z,24.84
2019-04-21T14:35:06.943Z,24.72
2019-04-21T14:37:38.354Z,24.80
2019-04-21T14:40:14.626Z,24.85
2019-04-21T14:43:05.929Z,24.67
2019-04-21T14:45:50.581Z,24.65
2019-04-21T14:48:39.456Z,24.71
2019-04-21T14:51:20.822Z,24.84
2019-04-21T14:54:22.593Z,24.90
2019-04-21T14:56:55.954Z,24.97
2019-04-21T14:59:26.945Z,25.00
2019-04-21T15:01:58.120Z,24.95
2019-04-21T15:04:29.023Z,24.89
2019-04-21T15:07:01.590Z,24.90
2019-04-21T15:09:37.689Z,25.01
2019-04-21T15:12:09.676Z,24.96
2019-04-21T15:14:42.156Z,24.91
2019-04-21T15:17:19.538Z,24.96
2019-04-21T15:19:58.237Z,24.83
2019-04-21T15:22:26.080Z,24.61
2019-04-21T15:24:58.347Z,24.47
2019-04-21T15:27:29.059Z,24.34
2019-04-21T15:30:00.552Z,24.34
2019-04-21T15:32:32.722Z,24.41
2019-04-21T15:35:06.925Z,24.49
2019-04-21T15:37:37.934Z,24.48
2019-04-21T15:40:18.136Z,24.47
2019-04-21T15:42:42.207Z,24.46
2019-04-21T15:45:14.605Z,24.48
2019-04-21T15:47:46.127Z,24.43
2019-04-21T15:50:19.507Z,24.26
2019-04-21T15:52:51.653Z,24.16
2019-04-21T15:55:41.290Z,24.08
2019-04-21T15:58:18.793Z,23.97
2019-04-21T16:01:04.789Z,23.98
2019-04-21T16:03:36.521Z,23.97
2019-04-21T16:06:07.626Z,24.05
2019-04-21T16:08:39.515Z,24.04
2019-04-21T16:11:13.546Z,23.93
2019-04-21T16:13:45.722Z,23.89
2019-04-21T16:16:20.264Z,23.83
2019-04-21T16:18:52.093Z,23.83
2019-04-21T16:21:26.222Z,23.85
2019-04-21T16:24:02.678Z,23.85
2019-04-21T16:26:34.856Z,23.82
2019-04-21T16:29:07.010Z,23.74
2019-04-21T16:31:38.336Z,23.71
2019-04-21T16:34:09.291Z,23.66
2019-04-21T16:36:41.231Z,23.53
2019-04-21T16:39:11.789Z,23.48
2019-04-21T16:41:42.675Z,23.49
2019-04-21T16:44:13.459Z,23.46
2019-04-21T16:46:45.428Z,23.41
2019-04-21T16:49:16.044Z,23.34
2019-04-21T16:51:48.283Z,23.36
2019-04-21T16:54:28.106Z,23.38
2019-04-21T16:57:23.861Z,23.42
2019-04-21T17:00:02.372Z,23.37
2019-04-21T17:02:34.260Z,23.27
2019-04-21T17:05:06.718Z,23.20
2019-04-21T17:07:38.806Z,23.12
2019-04-21T17:10:10.628Z,23.12
2019-04-21T17:12:43.217Z,23.06
2019-04-21T17:15:32.500Z,23.03
2019-04-21T17:18:05.955Z,23.01
2019-04-21T17:20:34.241Z,22.97
2019-04-21T17:22:53.520Z,22.91
2019-04-21T17:25:25.926Z,22.91
2019-04-21T17:27:56.861Z,22.89
2019-04-21T17:30:30.586Z,22.91
2019-04-21T17:33:05.707Z,22.98
2019-04-21T17:35:36.338Z,22.96
2019-04-21T17:38:07.913Z,22.89
2019-04-21T17:40:42.409Z,22.76
2019-04-21T17:43:17.531Z,22.65
2019-04-21T17:45:46.831Z,22.61
2019-04-21T17:48:19.374Z,22.56
2019-04-21T17:51:17.460Z,22.47
2019-04-21T17:53:58.963Z,22.36
2019-04-21T17:56:59.594Z,22.29
2019-04-21T17:59:28.138Z,22.24
2019-04-21T18:02:05.127Z,22.20
2019-04-21T18:04:49.189Z,22.14
2019-04-21T18:07:31.252Z,22.09
2019-04-21T18:10:04.730Z,22.02
2019-04-21T18:12:36.088Z,21.96
2019-04-21T18:15:18.062Z,21.88
2019-04-21T18:17:34.225Z,21.82
2019-04-21T18:20:06.079Z,21.79
2019-04-21T18:22:58.566Z,21.75
2019-04-21T18:25:42.305Z,21.63
2019-04-21T18:28:02.906Z,21.56
2019-04-21T18:31:00.624Z,21.50
2019-04-21T18:33:36.616Z,21.43
2019-04-21T18:36:34.844Z,21.37
2019-04-21T18:39:38.132Z,21.31
2019-04-21T18:42:35.336Z,21.24
2019-04-21T18:48:24.560Z,21.06
2019-04-21T18:51:13.542Z,20.95
2019-04-21T18:54:09.082Z,20.87
2019-04-21T18:56:23.219Z,20.83
2019-04-21T18:58:56.447Z,20.82
2019-04-21T19:01:33.480Z,20.81
2019-04-21T19:04:06.315Z,20.76
2019-04-21T19:06:51.707Z,20.72
2019-04-21T19:09:35.903Z,20.71
2019-04-21T19:12:08.332Z,20.67
2019-04-21T19:19:54.351Z,20.51
2019-04-21T19:22:28.189Z,20.50
2019-04-21T19:25:05.434Z,20.44
2019-04-21T19:27:50.209Z,20.36
2019-04-21T19:30:33.605Z,20.31
2019-04-21T19:32:54.497Z,20.28
2019-04-21T19:35:13.054Z,20.26
2019-04-21T19:37:55.148Z,20.20
2019-04-21T19:40:37.624Z,20.14
2019-04-21T19:43:00.914Z,20.10
2019-04-21T19:45:36.788Z,20.05
2019-04-21T19:48:15.317Z,20.00
2019-04-21T19:50:46.668Z,19.94
2019-04-21T19:53:25.485Z,19.90
2019-04-21T19:55:42.807Z,19.84
2019-04-21T19:58:14.803Z,19.79
2019-04-21T20:00:47.394Z,19.75
2019-04-21T20:03:18.766Z,19.71
2019-04-21T20:05:59.320Z,19.66
2019-04-21T20:08:36.618Z,19.61
2019-04-21T20:11:19.333Z,19.57
2019-04-21T20:14:35.333Z,19.51
2019-04-21T20:16:33.723Z,19.47
2019-04-21T20:18:45.630Z,19.42
2019-04-21T20:21:17.169Z,19.38
2019-04-21T20:23:47.715Z,19.33
2019-04-21T20:26:39.093Z,19.27
2019-04-21T20:29:20.724Z,19.24
2019-04-21T20:31:54.344Z,19.19
2019-04-21T20:34:38.603Z,19.16
2019-04-21T20:37:09.270Z,19.10
2019-04-21T20:39:41.748Z,19.07
2019-04-21T20:42:20.872Z,19.02
2019-04-21T20:45:16.661Z,18.99
2019-04-21T20:47:25.593Z,18.94
2019-04-21T20:50:03.357Z,18.90
2019-04-21T20:52:48.027Z,18.89
2019-04-21T20:55:11.997Z,18.87
2019-04-21T20:57:48.984Z,18.84
2019-04-21T21:00:33.575Z,18.80
2019-04-21T21:03:07.110Z,18.75
2019-04-21T21:05:30.497Z,18.70
2019-04-21T21:08:13.688Z,18.66
2019-04-21T21:10:38.553Z,18.62
2019-04-21T21:13:22.944Z,18.60
2019-04-21T21:16:03.810Z,18.55
2019-04-21T21:18:52.027Z,18.52
2019-04-21T21:21:00.348Z,18.51
2019-04-21T21:23:36.272Z,18.48
2019-04-21T21:26:10.022Z,18.46
2019-04-21T21:28:36.937Z,18.41
2019-04-21T21:31:11.483Z,18.39
2019-04-21T21:33:52.497Z,18.34
2019-04-21T21:36:31.548Z,18.31
2019-04-21T21:38:53.132Z,18.28
2019-04-21T21:41:13.746Z,18.23
2019-04-21T21:43:37.805Z,18.21
2019-04-21T21:46:25.006Z,18.18
2019-04-21T21:48:53.846Z,18.13
2019-04-21T21:51:29.323Z,18.10
2019-04-21T21:53:48.799Z,18.07
2019-04-21T21:56:20.603Z,18.04
2019-04-21T21:58:53.828Z,18.00
2019-04-21T22:01:37.707Z,17.94
2019-04-21T22:04:10.424Z,17.86
2019-04-21T22:06:47.135Z,17.81
2019-04-21T22:09:14.613Z,17.75
2019-04-21T22:11:48.650Z,17.69
2019-04-21T22:14:34.010Z,17.63
2019-04-21T22:17:16.474Z,17.56
2019-04-21T22:19:51.020Z,17.51
2019-04-21T22:22:21.407Z,17.49
2019-04-21T22:24:51.069Z,17.43
2019-04-21T22:27:07.508Z,17.42
2019-04-21T22:29:46.052Z,17.40
2019-04-21T22:32:22.905Z,17.34
2019-04-21T22:34:56.467Z,17.32
2019-04-21T22:37:40.021Z,17.29
2019-04-21T22:40:10.921Z,17.28
2019-04-21T22:42:34.905Z,17.25
2019-04-21T22:45:07.302Z,17.22
2019-04-21T22:47:42.656Z,17.14
2019-04-21T22:50:30.593Z,17.08
2019-04-21T22:53:04.897Z,16.94
2019-04-21T22:55:35.274Z,16.85
2019-04-21T22:58:09.611Z,16.75
2019-04-21T23:00:46.020Z,16.67
2019-04-21T23:03:20.657Z,16.59
2019-04-21T23:05:50.077Z,16.52
2019-04-21T23:08:26.449Z,16.49
2019-04-21T23:10:59.143Z,16.48
2019-04-21T23:13:28.579Z,16.47
2019-04-21T23:16:01.399Z,16.43
2019-04-21T23:18:48.015Z,16.40
2019-04-21T23:21:17.484Z,16.37
2019-04-21T23:23:59.398Z,16.34
2019-04-21T23:26:26.684Z,16.32
2019-04-21T23:28:58.557Z,16.31
2019-04-21T23:31:37.222Z,16.31
2019-04-21T23:33:44.183Z,16.30
2019-04-21T23:36:20.559Z,16.29
2019-04-21T23:38:50.126Z,16.29
2019-04-21T23:41:21.492Z,16.28
2019-04-21T23:43:59.187Z,16.27
2019-04-21T23:46:28.153Z,16.28
2019-04-21T23:49:12.606Z,16.31
2019-04-21T23:51:39.585Z,16.34
2019-04-21T23:54:01.813Z,16.31
2019-04-21T23:56:37.246Z,16.29
2019-04-21T23:59:07.473Z,16.26
